createdAt,value
2022-10-28T00:01:02.851Z,54.93
2022-10-28T00:04:05.777Z,54.77
2022-10-28T00:07:08.718Z,54.63
2022-10-28T00:10:11.482Z,54.93
2022-10-28T00:13:14.271Z,54.62
2022-10-28T00:16:18.967Z,54.45
2022-10-28T00:19:21.806Z,54.93
2022-10-28T00:22:24.673Z,54.71
2022-10-28T00:25:27.714Z,54.81
2022-10-28T00:28:30.462Z,54.99
2022-10-28T00:31:35.024Z,54.48
2022-10-28T00:34:38.778Z,55.19
2022-10-28T00:37:41.586Z,55.09
2022-10-28T00:40:44.326Z,54.68
2022-10-28T00:43:48.196Z,55.05
2022-10-28T00:46:53.772Z,55.17
2022-10-28T00:49:58.992Z,55.54
2022-10-28T00:53:03.219Z,55.12
2022-10-28T00:56:06.453Z,55.39
2022-10-28T00:59:11.208Z,54.94
2022-10-28T01:02:15.701Z,54.91
2022-10-28T01:05:20.509Z,55.44
2022-10-28T01:08:23.323Z,55.22
2022-10-28T01:11:41.059Z,55.42
2022-10-28T01:14:50.494Z,55.25
2022-10-28T01:18:01.742Z,55.71
2022-10-28T01:21:25.403Z,55.71
2022-10-28T01:24:37.536Z,55.50
2022-10-28T01:27:57.910Z,54.96
2022-10-28T01:31:14.523Z,55.25
2022-10-28T01:34:21.181Z,54.99
2022-10-28T01:37:31.555Z,55.22
2022-10-28T01:40:36.370Z,55.79
2022-10-28T01:43:43.115Z,55.24
2022-10-28T01:46:49.555Z,55.11
2022-10-28T01:49:55.667Z,55.52
2022-10-28T01:52:59.876Z,55.19
2022-10-28T01:56:05.097Z,55.24
2022-10-28T01:59:10.651Z,55.12
2022-10-28T02:02:15.719Z,55.05
2022-10-28T02:05:37.195Z,55.13
2022-10-28T02:08:47.552Z,55.07
2022-10-28T02:12:08.096Z,55.39
2022-10-28T02:15:16.007Z,55.18
2022-10-28T02:18:28.113Z,55.14
2022-10-28T02:21:35.199Z,55.03
2022-10-28T02:24:41.700Z,54.97
2022-10-28T02:27:46.947Z,54.92
2022-10-28T02:30:52.587Z,54.82
2022-10-28T02:34:01.652Z,55.03
2022-10-28T02:37:07.452Z,55.05
2022-10-28T02:40:13.651Z,55.02
2022-10-28T02:43:18.619Z,54.99
2022-10-28T02:46:22.315Z,54.93
2022-10-28T02:49:26.929Z,54.99
2022-10-28T02:52:31.440Z,55.23
2022-10-28T02:55:36.603Z,55.17
2022-10-28T02:58:40.766Z,54.97
2022-10-28T03:01:43.665Z,55.22
2022-10-28T03:04:47.928Z,55.11
2022-10-28T03:07:50.875Z,55.28
2022-10-28T03:10:53.877Z,55.00
2022-10-28T03:13:56.623Z,55.15
2022-10-28T03:16:59.541Z,55.21
2022-10-28T03:20:03.711Z,55.14
2022-10-28T03:23:06.460Z,55.02
2022-10-28T03:26:09.184Z,55.39
2022-10-28T03:29:11.922Z,55.21
2022-10-28T03:32:14.814Z,55.24
2022-10-28T03:35:19.091Z,55.30
2022-10-28T03:38:21.927Z,55.21
2022-10-28T03:41:24.687Z,54.93
2022-10-28T03:44:27.494Z,54.97
2022-10-28T03:47:31.321Z,54.91
2022-10-28T03:50:35.635Z,55.08
2022-10-28T03:53:38.419Z,54.96
2022-10-28T03:56:41.505Z,55.14
2022-10-28T03:59:44.314Z,55.04
2022-10-28T04:02:50.582Z,54.98
2022-10-28T04:05:54.956Z,55.14
2022-10-28T04:08:57.833Z,55.28
2022-10-28T04:12:00.664Z,55.11
2022-10-28T04:15:03.471Z,55.18
2022-10-28T04:18:06.675Z,55.06
2022-10-28T04:21:10.828Z,55.33
2022-10-28T04:24:13.733Z,55.08
2022-10-28T04:27:16.546Z,55.26
2022-10-28T04:30:19.384Z,55.04
2022-10-28T04:33:22.140Z,55.06
2022-10-28T04:36:26.310Z,55.05
2022-10-28T04:39:29.119Z,54.82
2022-10-28T04:42:31.911Z,55.12
2022-10-28T04:45:34.696Z,54.95
2022-10-28T04:48:37.628Z,55.19
2022-10-28T04:51:41.792Z,55.03
2022-10-28T04:54:44.594Z,55.07
2022-10-28T04:57:54.262Z,55.29
2022-10-28T05:00:57.091Z,55.25
2022-10-28T05:03:59.922Z,55.44
2022-10-28T05:07:04.046Z,55.12
2022-10-28T05:10:07.545Z,55.42
2022-10-28T05:13:10.326Z,55.29
2022-10-28T05:16:13.115Z,55.31
2022-10-28T05:19:15.877Z,55.09
2022-10-28T05:22:20.054Z,55.12
2022-10-28T05:25:23.604Z,55.05
2022-10-28T05:28:26.467Z,55.02
2022-10-28T05:31:29.335Z,55.28
2022-10-28T05:34:32.154Z,55.19
2022-10-28T05:37:36.272Z,55.22
2022-10-28T05:40:39.012Z,54.98
2022-10-28T05:43:41.819Z,55.22
2022-10-28T05:46:44.579Z,55.16
2022-10-28T05:49:47.369Z,55.05
2022-10-28T05:52:52.478Z,55.11
2022-10-28T05:55:55.292Z,55.09
2022-10-28T05:58:58.171Z,55.26
2022-10-28T06:02:00.930Z,55.02
2022-10-28T06:05:03.783Z,55.25
2022-10-28T06:08:08.207Z,55.36
2022-10-28T06:11:09.398Z,55.50
2022-10-28T06:14:12.238Z,55.04
2022-10-28T06:17:15.044Z,55.26
2022-10-28T06:20:18.399Z,55.51
2022-10-28T06:23:22.648Z,55.54
2022-10-28T06:26:25.360Z,55.34
2022-10-28T06:29:28.157Z,55.47
2022-10-28T06:32:30.899Z,55.14
2022-10-28T06:35:34.251Z,55.27
2022-10-28T06:38:38.407Z,55.46
2022-10-28T06:41:41.261Z,55.48
2022-10-28T06:44:44.018Z,55.33
2022-10-28T06:47:48.389Z,54.87
2022-10-28T06:50:51.447Z,55.30
2022-10-28T06:53:55.569Z,54.95
2022-10-28T06:56:58.345Z,54.81
2022-10-28T07:00:01.149Z,54.15
2022-10-28T07:03:04.118Z,54.38
2022-10-28T07:06:07.311Z,54.55
2022-10-28T07:09:14.315Z,54.99
2022-10-28T07:15:24.940Z,55.23
2022-10-28T07:18:28.558Z,55.25
2022-10-28T07:21:31.385Z,55.54
2022-10-28T07:24:35.690Z,55.54
2022-10-28T07:27:38.554Z,55.68
2022-10-28T07:30:41.288Z,55.61
2022-10-28T07:33:44.112Z,55.62
2022-10-28T07:36:47.033Z,55.71
2022-10-28T07:39:51.244Z,55.55
2022-10-28T07:42:54.268Z,55.38
2022-10-28T07:45:57.642Z,55.31
2022-10-28T07:49:00.505Z,55.23
2022-10-28T07:52:03.493Z,55.20
2022-10-28T07:55:08.204Z,55.13
2022-10-28T07:58:10.989Z,55.30
2022-10-28T08:01:15.404Z,55.26
2022-10-28T08:04:18.446Z,54.80
2022-10-28T08:07:21.389Z,54.29
2022-10-28T08:10:25.533Z,54.17
2022-10-28T08:13:28.281Z,54.21
2022-10-28T08:16:31.540Z,54.17
2022-10-28T08:19:34.491Z,54.02
2022-10-28T08:22:37.230Z,54.53
2022-10-28T08:25:48.187Z,55.04
2022-10-28T08:28:51.110Z,54.96
2022-10-28T08:31:53.953Z,54.09
2022-10-28T08:34:56.751Z,55.19
2022-10-28T08:37:59.572Z,54.76
2022-10-28T08:41:09.365Z,54.37
2022-10-28T08:44:27.109Z,54.35
2022-10-28T08:47:36.676Z,54.83
2022-10-28T08:50:45.550Z,55.18
2022-10-28T08:53:50.803Z,54.71
2022-10-28T08:56:56.328Z,54.79
2022-10-28T09:00:00.108Z,54.71
2022-10-28T09:03:09.606Z,54.41
2022-10-28T09:06:12.630Z,54.03
2022-10-28T09:09:18.853Z,54.13
2022-10-28T09:12:30.019Z,54.13
2022-10-28T09:15:36.303Z,54.84
2022-10-28T09:18:50.840Z,54.50
2022-10-28T09:21:59.804Z,54.81
2022-10-28T09:25:03.664Z,54.31
2022-10-28T09:28:17.978Z,54.47
2022-10-28T09:31:26.868Z,54.75
2022-10-28T09:34:36.190Z,54.91
2022-10-28T09:37:41.505Z,54.58
2022-10-28T09:40:47.845Z,54.65
2022-10-28T09:43:54.539Z,54.72
2022-10-28T09:47:00.373Z,54.75
2022-10-28T09:50:05.555Z,54.91
2022-10-28T09:53:14.068Z,55.01
2022-10-28T09:56:16.896Z,55.05
2022-10-28T09:59:21.164Z,55.02
2022-10-28T10:02:28.584Z,55.40
2022-10-28T10:05:32.494Z,54.94
2022-10-28T10:08:37.594Z,55.39
2022-10-28T10:11:43.132Z,55.50
2022-10-28T10:14:50.263Z,55.36
2022-10-28T10:17:53.403Z,55.43
2022-10-28T10:20:58.708Z,55.49
2022-10-28T10:24:01.500Z,55.57
2022-10-28T10:27:13.529Z,55.72
2022-10-28T10:30:20.777Z,55.35
2022-10-28T10:33:25.560Z,55.70
2022-10-28T10:36:31.574Z,55.15
2022-10-28T10:39:37.703Z,55.02
2022-10-28T10:42:51.628Z,55.22
2022-10-28T10:46:06.093Z,55.37
2022-10-28T10:49:14.387Z,55.38
2022-10-28T10:52:19.419Z,55.26
2022-10-28T10:55:24.678Z,55.11
2022-10-28T10:58:29.253Z,55.18
2022-10-28T11:01:36.445Z,54.72
2022-10-28T11:04:39.375Z,55.14
2022-10-28T11:07:48.355Z,54.87
2022-10-28T11:11:03.743Z,54.04
2022-10-28T11:14:08.930Z,54.07
2022-10-28T11:17:24.323Z,54.77
2022-10-28T11:20:31.103Z,55.02
2022-10-28T11:23:42.166Z,55.08
2022-10-28T11:26:53.552Z,54.99
2022-10-28T11:29:58.494Z,55.30
2022-10-28T11:33:28.889Z,55.38
2022-10-28T11:36:35.366Z,55.21
2022-10-28T11:39:41.764Z,55.11
2022-10-28T11:42:49.690Z,55.30
2022-10-28T11:46:00.280Z,55.21
2022-10-28T11:49:20.806Z,55.20
2022-10-28T11:52:32.294Z,55.14
2022-10-28T11:55:37.169Z,55.00
2022-10-28T11:58:43.468Z,55.45
2022-10-28T12:01:49.368Z,55.59
2022-10-28T12:04:59.384Z,54.23
2022-10-28T12:08:12.571Z,55.40
2022-10-28T12:11:22.511Z,55.38
2022-10-28T12:14:29.151Z,55.55
2022-10-28T12:17:35.756Z,54.77
2022-10-28T12:20:42.776Z,55.08
2022-10-28T12:23:47.787Z,55.13
2022-10-28T12:26:53.018Z,55.02
2022-10-28T12:29:59.247Z,54.95
2022-10-28T12:33:06.224Z,55.00
2022-10-28T12:36:20.400Z,54.68
2022-10-28T12:39:26.783Z,55.12
2022-10-28T12:42:33.401Z,54.43
2022-10-28T12:45:36.969Z,54.94
2022-10-28T12:48:45.781Z,54.91
2022-10-28T12:51:48.829Z,54.66
2022-10-28T12:54:57.502Z,54.76
2022-10-28T12:58:03.703Z,54.79
2022-10-28T13:01:10.949Z,54.91
2022-10-28T13:04:14.522Z,55.18
2022-10-28T13:07:29.047Z,54.90
2022-10-28T13:10:37.149Z,54.70
2022-10-28T13:13:43.961Z,54.46
2022-10-28T13:20:13.993Z,55.11
2022-10-28T13:23:26.836Z,55.01
2022-10-28T13:26:32.331Z,54.36
2022-10-28T13:29:37.707Z,54.98
2022-10-28T13:32:41.704Z,54.80
2022-10-28T13:35:44.589Z,54.92
2022-10-28T13:38:52.482Z,54.98
2022-10-28T13:42:23.531Z,54.81
2022-10-28T13:45:45.567Z,54.84
2022-10-28T13:48:49.818Z,55.15
2022-10-28T13:51:53.105Z,55.93
2022-10-28T13:54:58.901Z,55.56
2022-10-28T13:58:04.502Z,56.40
2022-10-28T14:01:22.202Z,56.29
2022-10-28T14:04:31.499Z,56.71
2022-10-28T14:07:36.527Z,56.95
2022-10-28T14:10:40.034Z,57.14
2022-10-28T14:13:49.451Z,57.59
2022-10-28T14:16:52.970Z,57.58
2022-10-28T14:19:57.557Z,57.54
2022-10-28T14:23:00.747Z,58.01
2022-10-28T14:26:05.634Z,58.12
2022-10-28T14:29:23.256Z,58.32
2022-10-28T14:32:43.160Z,58.13
2022-10-28T14:35:48.576Z,58.50
2022-10-28T14:38:59.182Z,58.98
2022-10-28T14:42:10.450Z,59.75
2022-10-28T14:45:21.837Z,58.91
2022-10-28T14:48:38.332Z,59.24
2022-10-28T14:51:43.303Z,58.30
2022-10-28T14:54:49.053Z,58.15
2022-10-28T14:57:52.011Z,57.84
2022-10-28T15:00:59.402Z,57.60
2022-10-28T15:04:03.476Z,57.32
2022-10-28T15:07:10.401Z,57.48
2022-10-28T15:10:17.930Z,57.08
2022-10-28T15:13:27.845Z,57.78
2022-10-28T15:16:30.688Z,57.91
2022-10-28T15:19:35.330Z,58.24
2022-10-28T15:22:41.840Z,58.06
2022-10-28T15:25:44.733Z,58.08
2022-10-28T15:28:47.597Z,58.21
2022-10-28T15:32:16.271Z,58.50
2022-10-28T15:35:40.353Z,58.10
2022-10-28T15:38:46.478Z,58.32
2022-10-28T15:41:53.304Z,58.23
2022-10-28T15:44:56.731Z,57.84
2022-10-28T15:48:00.296Z,57.98
2022-10-28T15:51:12.809Z,57.96
2022-10-28T15:54:20.080Z,57.90
2022-10-28T15:57:23.676Z,58.11
2022-10-28T16:00:27.702Z,57.87
2022-10-28T16:03:42.218Z,57.92
2022-10-28T16:06:45.053Z,57.86
2022-10-28T16:09:50.218Z,58.17
2022-10-28T16:12:53.080Z,57.85
2022-10-28T16:15:58.649Z,58.25
2022-10-28T16:19:08.651Z,58.50
2022-10-28T16:22:12.955Z,58.04
2022-10-28T16:25:18.394Z,57.98
2022-10-28T16:28:24.808Z,57.81
2022-10-28T16:31:29.397Z,57.64
2022-10-28T16:34:32.296Z,57.57
2022-10-28T16:37:38.272Z,57.28
2022-10-28T16:40:51.478Z,56.68
2022-10-28T16:43:55.967Z,57.19
2022-10-28T16:46:59.072Z,56.94
2022-10-28T16:50:01.898Z,56.94
2022-10-28T16:53:04.658Z,56.63
2022-10-28T16:56:13.694Z,56.24
2022-10-28T16:59:18.250Z,55.66
2022-10-28T17:02:23.804Z,55.26
2022-10-28T17:05:26.695Z,56.97
2022-10-28T17:08:56.536Z,56.02
2022-10-28T17:11:54.039Z,55.56
2022-10-28T17:14:56.817Z,55.53
2022-10-28T17:17:59.711Z,55.38
2022-10-28T17:21:03.411Z,55.65
2022-10-28T17:24:06.464Z,55.06
2022-10-28T17:27:10.584Z,54.96
2022-10-28T17:30:13.796Z,54.92
2022-10-28T17:33:17.037Z,54.35
2022-10-28T17:36:20.016Z,54.80
2022-10-28T17:39:26.234Z,54.88
2022-10-28T17:42:30.679Z,54.69
2022-10-28T17:45:33.793Z,54.98
2022-10-28T17:48:36.626Z,54.86
2022-10-28T17:51:39.925Z,54.35
2022-10-28T17:54:42.733Z,53.92
2022-10-28T17:57:47.301Z,54.23
2022-10-28T18:00:50.117Z,54.27
2022-10-28T18:03:53.019Z,54.48
2022-10-28T18:06:58.640Z,54.38
2022-10-28T18:10:01.457Z,54.16
2022-10-28T18:13:06.026Z,54.45
2022-10-28T18:16:10.199Z,54.12
2022-10-28T18:19:13.533Z,54.26
2022-10-28T18:22:16.762Z,54.12
2022-10-28T18:25:19.809Z,53.87
2022-10-28T18:28:23.945Z,54.31
2022-10-28T18:31:26.714Z,53.52
2022-10-28T18:34:29.743Z,53.63
2022-10-28T18:37:32.559Z,53.80
2022-10-28T18:40:35.698Z,53.75
2022-10-28T18:43:42.292Z,53.63
2022-10-28T18:46:46.369Z,53.92
2022-10-28T18:49:49.353Z,53.75
2022-10-28T18:52:52.694Z,53.34
2022-10-28T18:56:00.733Z,53.91
2022-10-28T18:59:05.509Z,53.74
2022-10-28T19:02:09.716Z,53.84
2022-10-28T19:05:12.869Z,53.58
2022-10-28T19:08:17.742Z,53.80
2022-10-28T19:11:20.826Z,53.50
2022-10-28T19:14:25.016Z,53.49
2022-10-28T19:17:27.772Z,53.45
2022-10-28T19:20:30.792Z,53.77
2022-10-28T19:23:36.522Z,53.29
2022-10-28T19:26:39.489Z,53.85
2022-10-28T19:29:43.675Z,52.83
2022-10-28T19:32:46.509Z,53.25
2022-10-28T19:35:49.282Z,53.57
2022-10-28T19:38:53.796Z,53.53
2022-10-28T19:41:56.707Z,53.38
2022-10-28T19:45:01.001Z,53.10
2022-10-28T19:48:03.811Z,53.04
2022-10-28T19:51:07.031Z,53.13
2022-10-28T19:54:11.290Z,53.02
2022-10-28T20:00:23.285Z,52.97
2022-10-28T20:03:26.108Z,52.82
2022-10-28T20:06:31.457Z,52.80
2022-10-28T20:09:34.280Z,52.80
2022-10-28T20:12:37.039Z,52.88
2022-10-28T20:15:41.257Z,52.94
2022-10-28T20:18:44.185Z,53.00
2022-10-28T20:21:48.703Z,53.15
2022-10-28T20:24:54.226Z,53.15
2022-10-28T20:27:57.337Z,52.97
2022-10-28T20:31:02.673Z,52.95
2022-10-28T20:34:05.951Z,53.16
2022-10-28T20:37:08.675Z,53.19
2022-10-28T20:40:11.845Z,52.98
2022-10-28T20:43:14.652Z,53.01
2022-10-28T20:46:20.203Z,53.20
2022-10-28T20:49:23.218Z,52.92
2022-10-28T20:52:25.969Z,53.03
2022-10-28T20:55:28.778Z,52.98
2022-10-28T20:58:32.273Z,53.27
2022-10-28T21:01:37.414Z,52.85
2022-10-28T21:04:40.409Z,52.99
2022-10-28T21:07:43.200Z,52.70
2022-10-28T21:10:45.995Z,53.01
2022-10-28T21:13:51.114Z,52.72
2022-10-28T21:16:55.296Z,52.80
2022-10-28T21:19:58.091Z,52.99
2022-10-28T21:23:01.176Z,52.89
2022-10-28T21:26:05.022Z,52.72
2022-10-28T21:29:07.844Z,52.91
2022-10-28T21:32:11.968Z,52.34
2022-10-28T21:35:14.745Z,52.88
2022-10-28T21:38:18.144Z,53.04
2022-10-28T21:41:21.806Z,53.03
2022-10-28T21:44:24.553Z,53.12
2022-10-28T21:47:28.957Z,53.10
2022-10-28T21:50:31.746Z,53.14
2022-10-28T21:53:35.324Z,52.82
2022-10-28T21:56:38.183Z,53.02
2022-10-28T21:59:40.922Z,53.25
2022-10-28T22:02:45.185Z,52.58
2022-10-28T22:05:51.118Z,52.83
2022-10-28T22:08:53.949Z,52.82
2022-10-28T22:11:56.686Z,52.85
2022-10-28T22:14:59.449Z,52.97
2022-10-28T22:18:03.634Z,52.99
2022-10-28T22:21:07.125Z,52.75
2022-10-28T22:24:10.303Z,52.85
2022-10-28T22:27:13.076Z,52.98
2022-10-28T22:30:15.865Z,53.01
2022-10-28T22:33:20.021Z,52.74
2022-10-28T22:36:23.364Z,52.95
2022-10-28T22:39:26.145Z,52.97
2022-10-28T22:42:28.959Z,53.13
2022-10-28T22:45:31.722Z,53.20
2022-10-28T22:48:35.988Z,52.90
2022-10-28T22:51:38.766Z,52.88
2022-10-28T22:54:41.508Z,53.11
2022-10-28T22:57:45.392Z,52.93
2022-10-28T23:00:48.136Z,52.97
2022-10-28T23:03:52.957Z,52.83
2022-10-28T23:06:55.751Z,52.98
2022-10-28T23:10:00.623Z,52.97
2022-10-28T23:13:03.796Z,52.89
2022-10-28T23:16:07.130Z,52.89
2022-10-28T23:19:11.222Z,52.87
2022-10-28T23:22:14.024Z,52.63
2022-10-28T23:25:17.084Z,52.71
2022-10-28T23:28:19.867Z,52.79
2022-10-28T23:31:23.282Z,52.88
2022-10-28T23:34:28.360Z,52.85
2022-10-28T23:37:31.073Z,52.74
2022-10-28T23:40:33.882Z,53.22
2022-10-28T23:43:37.885Z,52.94
2022-10-28T23:46:40.743Z,53.04
2022-10-28T23:49:44.830Z,53.12
2022-10-28T23:52:47.590Z,52.94
2022-10-28T23:55:51.361Z,53.32
2022-10-28T23:58:54.193Z,53.27
